sensor_id;sensor_type;location;lat;lon;timestamp;temperature;humidity
38118;DHT22;23928;47.562;7.508;2022-08-27T00:00:41;20.50;99.90
38118;DHT22;23928;47.562;7.508;2022-08-27T00:03:07;20.50;99.90
38118;DHT22;23928;47.562;7.508;2022-08-27T00:05:33;20.50;99.90
38118;DHT22;23928;47.562;7.508;2022-08-27T00:08:02;20.50;99.90
38118;DHT22;23928;47.562;7.508;2022-08-27T00:10:28;20.50;99.90
38118;DHT22;23928;47.562;7.508;2022-08-27T00:12:54;20.30;99.90
38118;DHT22;23928;47.562;7.508;2022-08-27T00:15:21;20.10;99.90
38118;DHT22;23928;47.562;7.508;2022-08-27T00:17:47;20.00;99.90
38118;DHT22;23928;47.562;7.508;2022-08-27T00:20:16;19.90;99.90
38118;DHT22;23928;47.562;7.508;2022-08-27T00:22:42;20.00;99.90
38118;DHT22;23928;47.562;7.508;2022-08-27T00:25:09;20.10;99.90
38118;DHT22;23928;47.562;7.508;2022-08-27T00:27:35;20.10;99.90
38118;DHT22;23928;47.562;7.508;2022-08-27T00:30:01;20.20;99.90
38118;DHT22;23928;47.562;7.508;2022-08-27T00:32:26;20.20;99.90
38118;DHT22;23928;47.562;7.508;2022-08-27T00:34:52;20.10;99.90
38118;DHT22;23928;47.562;7.508;2022-08-27T00:37:18;20.00;99.90
38118;DHT22;23928;47.562;7.508;2022-08-27T00:39:44;20.00;99.90
38118;DHT22;23928;47.562;7.508;2022-08-27T00:42:10;20.10;99.90
38118;DHT22;23928;47.562;7.508;2022-08-27T00:44:36;20.10;99.90
38118;DHT22;23928;47.562;7.508;2022-08-27T00:47:06;20.20;99.90
38118;DHT22;23928;47.562;7.508;2022-08-27T00:49:48;20.20;99.90
38118;DHT22;23928;47.562;7.508;2022-08-27T00:52:31;19.90;99.90
38118;DHT22;23928;47.562;7.508;2022-08-27T00:55:05;19.70;99.90
38118;DHT22;23928;47.562;7.508;2022-08-27T00:57:34;19.80;99.90
38118;DHT22;23928;47.562;7.508;2022-08-27T01:00:00;19.60;99.90
38118;DHT22;23928;47.562;7.508;2022-08-27T01:02:27;19.40;99.90
38118;DHT22;23928;47.562;7.508;2022-08-27T01:05:16;19.50;99.90
38118;DHT22;23928;47.562;7.508;2022-08-27T01:07:46;19.60;99.90
38118;DHT22;23928;47.562;7.508;2022-08-27T01:10:16;19.70;99.90
38118;DHT22;23928;47.562;7.508;2022-08-27T01:12:42;19.80;99.90
38118;DHT22;23928;47.562;7.508;2022-08-27T01:15:11;19.90;99.90
38118;DHT22;23928;47.562;7.508;2022-08-27T01:17:38;20.00;99.90
38118;DHT22;23928;47.562;7.508;2022-08-27T01:20:08;20.00;99.90
38118;DHT22;23928;47.562;7.508;2022-08-27T01:22:55;20.10;99.90
38118;DHT22;23928;47.562;7.508;2022-08-27T01:25:24;20.00;99.90
38118;DHT22;23928;47.562;7.508;2022-08-27T01:27:50;19.90;99.90
38118;DHT22;23928;47.562;7.508;2022-08-27T01:30:19;19.90;99.90
38118;DHT22;23928;47.562;7.508;2022-08-27T01:32:45;19.80;99.90
38118;DHT22;23928;47.562;7.508;2022-08-27T01:35:13;19.80;99.90
38118;DHT22;23928;47.562;7.508;2022-08-27T01:37:40;19.80;99.90
38118;DHT22;23928;47.562;7.508;2022-08-27T01:40:06;19.80;99.90
38118;DHT22;23928;47.562;7.508;2022-08-27T01:42:36;19.50;99.90
38118;DHT22;23928;47.562;7.508;2022-08-27T01:45:09;19.40;99.90
38118;DHT22;23928;47.562;7.508;2022-08-27T01:47:36;19.30;99.90
38118;DHT22;23928;47.562;7.508;2022-08-27T01:50:09;19.30;99.90
38118;DHT22;23928;47.562;7.508;2022-08-27T01:52:35;19.50;99.90
38118;DHT22;23928;47.562;7.508;2022-08-27T01:55:02;19.50;99.90
38118;DHT22;23928;47.562;7.508;2022-08-27T01:57:28;19.60;99.90
38118;DHT22;23928;47.562;7.508;2022-08-27T01:59:54;19.60;99.90
38118;DHT22;23928;47.562;7.508;2022-08-27T02:02:21;19.50;99.90
38118;DHT22;23928;47.562;7.508;2022-08-27T02:04:47;19.40;99.90
38118;DHT22;23928;47.562;7.508;2022-08-27T02:07:15;19.40;99.90
38118;DHT22;23928;47.562;7.508;2022-08-27T02:09:41;19.50;99.90
38118;DHT22;23928;47.562;7.508;2022-08-27T02:12:06;19.60;99.90
38118;DHT22;23928;47.562;7.508;2022-08-27T02:14:32;19.60;99.90
38118;DHT22;23928;47.562;7.508;2022-08-27T02:16:58;19.60;99.90
38118;DHT22;23928;47.562;7.508;2022-08-27T02:19:23;19.60;99.90
38118;DHT22;23928;47.562;7.508;2022-08-27T02:21:49;19.70;99.90
38118;DHT22;23928;47.562;7.508;2022-08-27T02:24:15;19.70;99.90
38118;DHT22;23928;47.562;7.508;2022-08-27T02:26:41;19.60;99.90
38118;DHT22;23928;47.562;7.508;2022-08-27T02:29:06;19.60;99.90
38118;DHT22;23928;47.562;7.508;2022-08-27T02:31:32;19.70;99.90
38118;DHT22;23928;47.562;7.508;2022-08-27T02:33:58;19.70;99.90
38118;DHT22;23928;47.562;7.508;2022-08-27T02:36:25;19.60;99.90
38118;DHT22;23928;47.562;7.508;2022-08-27T02:38:50;19.50;99.90
38118;DHT22;23928;47.562;7.508;2022-08-27T02:41:16;19.50;99.90
38118;DHT22;23928;47.562;7.508;2022-08-27T02:43:43;19.50;99.90
38118;DHT22;23928;47.562;7.508;2022-08-27T02:46:10;19.50;99.90
38118;DHT22;23928;47.562;7.508;2022-08-27T02:48:38;19.50;99.90
38118;DHT22;23928;47.562;7.508;2022-08-27T02:51:04;19.60;99.90
38118;DHT22;23928;47.562;7.508;2022-08-27T02:53:31;19.60;99.90
38118;DHT22;23928;47.562;7.508;2022-08-27T02:55:57;19.60;99.90
38118;DHT22;23928;47.562;7.508;2022-08-27T02:58:23;19.60;99.90
38118;DHT22;23928;47.562;7.508;2022-08-27T03:00:49;19.40;99.90
38118;DHT22;23928;47.562;7.508;2022-08-27T03:03:14;19.30;99.90
38118;DHT22;23928;47.562;7.508;2022-08-27T03:05:40;19.50;99.90
38118;DHT22;23928;47.562;7.508;2022-08-27T03:08:06;19.60;99.90
38118;DHT22;23928;47.562;7.508;2022-08-27T03:10:32;19.60;99.90
38118;DHT22;23928;47.562;7.508;2022-08-27T03:12:58;19.50;99.90
38118;DHT22;23928;47.562;7.508;2022-08-27T03:15:24;19.20;99.90
38118;DHT22;23928;47.562;7.508;2022-08-27T03:17:50;19.00;99.90
38118;DHT22;23928;47.562;7.508;2022-08-27T03:20:39;18.90;99.90
38118;DHT22;23928;47.562;7.508;2022-08-27T03:23:06;19.00;99.90
38118;DHT22;23928;47.562;7.508;2022-08-27T03:25:31;19.10;99.90
38118;DHT22;23928;47.562;7.508;2022-08-27T03:27:57;19.10;99.90
38118;DHT22;23928;47.562;7.508;2022-08-27T03:30:23;19.00;99.90
38118;DHT22;23928;47.562;7.508;2022-08-27T03:32:50;18.80;99.90
38118;DHT22;23928;47.562;7.508;2022-08-27T03:35:16;18.70;99.90
38118;DHT22;23928;47.562;7.508;2022-08-27T03:37:42;18.60;99.90
38118;DHT22;23928;47.562;7.508;2022-08-27T03:40:08;18.60;99.90
38118;DHT22;23928;47.562;7.508;2022-08-27T03:42:35;18.70;99.90
38118;DHT22;23928;47.562;7.508;2022-08-27T03:45:01;18.90;99.90
38118;DHT22;23928;47.562;7.508;2022-08-27T03:47:27;19.00;99.90
38118;DHT22;23928;47.562;7.508;2022-08-27T03:49:52;19.10;99.90
38118;DHT22;23928;47.562;7.508;2022-08-27T03:52:18;19.10;99.90
38118;DHT22;23928;47.562;7.508;2022-08-27T03:54:44;19.10;99.90
38118;DHT22;23928;47.562;7.508;2022-08-27T03:57:10;19.00;99.90
38118;DHT22;23928;47.562;7.508;2022-08-27T03:59:36;18.90;99.90
38118;DHT22;23928;47.562;7.508;2022-08-27T04:02:03;19.00;99.90
38118;DHT22;23928;47.562;7.508;2022-08-27T04:04:28;19.10;99.90
38118;DHT22;23928;47.562;7.508;2022-08-27T04:06:56;19.20;99.90
38118;DHT22;23928;47.562;7.508;2022-08-27T04:09:22;19.40;99.90
38118;DHT22;23928;47.562;7.508;2022-08-27T04:11:48;19.50;99.90
38118;DHT22;23928;47.562;7.508;2022-08-27T04:14:13;19.40;99.90
38118;DHT22;23928;47.562;7.508;2022-08-27T04:16:39;19.30;99.90
38118;DHT22;23928;47.562;7.508;2022-08-27T04:19:06;19.30;99.90
38118;DHT22;23928;47.562;7.508;2022-08-27T04:21:32;19.30;99.90
38118;DHT22;23928;47.562;7.508;2022-08-27T04:24:00;19.30;99.90
38118;DHT22;23928;47.562;7.508;2022-08-27T04:26:26;19.50;99.90
38118;DHT22;23928;47.562;7.508;2022-08-27T04:28:51;19.70;99.90
38118;DHT22;23928;47.562;7.508;2022-08-27T04:31:17;19.40;99.90
38118;DHT22;23928;47.562;7.508;2022-08-27T04:33:43;19.20;99.90
38118;DHT22;23928;47.562;7.508;2022-08-27T04:36:10;19.20;99.90
38118;DHT22;23928;47.562;7.508;2022-08-27T04:38:36;19.40;99.90
38118;DHT22;23928;47.562;7.508;2022-08-27T04:41:07;19.40;99.90
38118;DHT22;23928;47.562;7.508;2022-08-27T04:44:00;19.30;99.90
38118;DHT22;23928;47.562;7.508;2022-08-27T04:46:32;19.60;99.90
38118;DHT22;23928;47.562;7.508;2022-08-27T04:49:00;19.60;99.90
38118;DHT22;23928;47.562;7.508;2022-08-27T04:51:27;19.50;99.90
38118;DHT22;23928;47.562;7.508;2022-08-27T04:53:53;19.50;99.90
38118;DHT22;23928;47.562;7.508;2022-08-27T04:56:21;19.60;99.90
38118;DHT22;23928;47.562;7.508;2022-08-27T04:58:48;19.70;99.90
38118;DHT22;23928;47.562;7.508;2022-08-27T05:01:16;19.80;99.90
38118;DHT22;23928;47.562;7.508;2022-08-27T05:03:42;19.80;99.90
38118;DHT22;23928;47.562;7.508;2022-08-27T05:06:08;19.50;99.90
38118;DHT22;23928;47.562;7.508;2022-08-27T05:08:34;19.50;99.90
38118;DHT22;23928;47.562;7.508;2022-08-27T05:11:00;19.60;99.90
38118;DHT22;23928;47.562;7.508;2022-08-27T05:13:26;19.50;99.90
38118;DHT22;23928;47.562;7.508;2022-08-27T05:16:01;19.40;99.90
38118;DHT22;23928;47.562;7.508;2022-08-27T05:18:27;19.60;99.90
38118;DHT22;23928;47.562;7.508;2022-08-27T05:20:53;19.70;99.90
38118;DHT22;23928;47.562;7.508;2022-08-27T05:23:19;19.80;99.90
38118;DHT22;23928;47.562;7.508;2022-08-27T05:25:47;19.90;99.90
38118;DHT22;23928;47.562;7.508;2022-08-27T05:28:15;19.80;99.90
38118;DHT22;23928;47.562;7.508;2022-08-27T05:30:46;19.80;99.90
38118;DHT22;23928;47.562;7.508;2022-08-27T05:33:13;19.80;99.90
38118;DHT22;23928;47.562;7.508;2022-08-27T05:35:40;19.80;99.90
38118;DHT22;23928;47.562;7.508;2022-08-27T05:38:06;19.80;99.90
38118;DHT22;23928;47.562;7.508;2022-08-27T05:40:32;19.90;99.90
38118;DHT22;23928;47.562;7.508;2022-08-27T05:42:58;19.90;99.90
38118;DHT22;23928;47.562;7.508;2022-08-27T05:45:23;20.00;99.90
38118;DHT22;23928;47.562;7.508;2022-08-27T05:47:49;20.00;99.90
38118;DHT22;23928;47.562;7.508;2022-08-27T05:50:15;20.00;99.90
38118;DHT22;23928;47.562;7.508;2022-08-27T05:52:40;19.70;99.90
38118;DHT22;23928;47.562;7.508;2022-08-27T05:55:06;19.60;99.90
38118;DHT22;23928;47.562;7.508;2022-08-27T05:57:33;19.70;99.90
38118;DHT22;23928;47.562;7.508;2022-08-27T05:59:59;19.50;99.90
38118;DHT22;23928;47.562;7.508;2022-08-27T06:02:43;19.20;99.90
38118;DHT22;23928;47.562;7.508;2022-08-27T06:05:09;19.30;99.90
38118;DHT22;23928;47.562;7.508;2022-08-27T06:07:35;19.40;99.90
38118;DHT22;23928;47.562;7.508;2022-08-27T06:10:01;19.70;99.90
38118;DHT22;23928;47.562;7.508;2022-08-27T06:12:28;19.80;99.90
38118;DHT22;23928;47.562;7.508;2022-08-27T06:14:54;19.90;99.90
38118;DHT22;23928;47.562;7.508;2022-08-27T06:17:19;19.60;99.90
38118;DHT22;23928;47.562;7.508;2022-08-27T06:19:45;19.50;99.90
38118;DHT22;23928;47.562;7.508;2022-08-27T06:22:11;19.20;99.90
38118;DHT22;23928;47.562;7.508;2022-08-27T06:24:38;19.50;99.90
38118;DHT22;23928;47.562;7.508;2022-08-27T06:27:04;19.60;99.90
38118;DHT22;23928;47.562;7.508;2022-08-27T06:29:30;19.90;99.90
38118;DHT22;23928;47.562;7.508;2022-08-27T06:31:56;20.00;99.90
38118;DHT22;23928;47.562;7.508;2022-08-27T06:34:21;19.90;99.90
38118;DHT22;23928;47.562;7.508;2022-08-27T06:36:47;20.00;99.90
38118;DHT22;23928;47.562;7.508;2022-08-27T06:39:13;20.00;99.90
38118;DHT22;23928;47.562;7.508;2022-08-27T06:41:40;19.60;99.90
38118;DHT22;23928;47.562;7.508;2022-08-27T06:44:07;19.50;99.90
38118;DHT22;23928;47.562;7.508;2022-08-27T06:46:32;19.60;99.90
38118;DHT22;23928;47.562;7.508;2022-08-27T06:49:00;19.60;99.90
38118;DHT22;23928;47.562;7.508;2022-08-27T06:51:32;19.60;99.90
38118;DHT22;23928;47.562;7.508;2022-08-27T06:54:00;19.80;99.90
38118;DHT22;23928;47.562;7.508;2022-08-27T06:56:26;20.20;99.90
38118;DHT22;23928;47.562;7.508;2022-08-27T06:58:54;20.30;99.90
38118;DHT22;23928;47.562;7.508;2022-08-27T07:01:22;20.10;99.90
38118;DHT22;23928;47.562;7.508;2022-08-27T07:03:48;19.70;99.90
38118;DHT22;23928;47.562;7.508;2022-08-27T07:06:15;19.90;99.90
38118;DHT22;23928;47.562;7.508;2022-08-27T07:08:42;19.80;99.90
38118;DHT22;23928;47.562;7.508;2022-08-27T07:11:10;19.80;99.90
38118;DHT22;23928;47.562;7.508;2022-08-27T07:13:37;20.20;99.90
38118;DHT22;23928;47.562;7.508;2022-08-27T07:16:05;20.20;99.90
38118;DHT22;23928;47.562;7.508;2022-08-27T07:18:31;20.50;99.90
38118;DHT22;23928;47.562;7.508;2022-08-27T07:20:56;20.10;99.90
38118;DHT22;23928;47.562;7.508;2022-08-27T07:23:22;20.20;99.90
38118;DHT22;23928;47.562;7.508;2022-08-27T07:25:48;20.60;99.90
38118;DHT22;23928;47.562;7.508;2022-08-27T07:28:13;20.30;99.90
38118;DHT22;23928;47.562;7.508;2022-08-27T07:30:39;20.40;99.90
38118;DHT22;23928;47.562;7.508;2022-08-27T07:33:05;20.10;99.90
38118;DHT22;23928;47.562;7.508;2022-08-27T07:35:30;20.00;99.90
38118;DHT22;23928;47.562;7.508;2022-08-27T07:37:57;20.00;99.90
38118;DHT22;23928;47.562;7.508;2022-08-27T07:40:22;19.90;99.90
38118;DHT22;23928;47.562;7.508;2022-08-27T07:42:48;20.20;99.90
38118;DHT22;23928;47.562;7.508;2022-08-27T07:45:33;20.30;99.90
38118;DHT22;23928;47.562;7.508;2022-08-27T07:47:58;20.00;99.90
38118;DHT22;23928;47.562;7.508;2022-08-27T07:50:24;19.90;99.90
38118;DHT22;23928;47.562;7.508;2022-08-27T07:52:50;20.10;99.90
38118;DHT22;23928;47.562;7.508;2022-08-27T07:55:16;20.20;99.90
38118;DHT22;23928;47.562;7.508;2022-08-27T07:57:43;20.60;99.90
38118;DHT22;23928;47.562;7.508;2022-08-27T08:00:10;20.70;99.90
38118;DHT22;23928;47.562;7.508;2022-08-27T08:02:37;20.80;99.90
38118;DHT22;23928;47.562;7.508;2022-08-27T08:05:04;20.80;99.90
38118;DHT22;23928;47.562;7.508;2022-08-27T08:07:31;21.10;99.90
38118;DHT22;23928;47.562;7.508;2022-08-27T08:09:58;20.90;99.90
38118;DHT22;23928;47.562;7.508;2022-08-27T08:12:24;20.80;99.90
38118;DHT22;23928;47.562;7.508;2022-08-27T08:14:49;21.10;99.90
38118;DHT22;23928;47.562;7.508;2022-08-27T08:17:15;21.10;99.90
38118;DHT22;23928;47.562;7.508;2022-08-27T08:19:40;21.30;99.90
38118;DHT22;23928;47.562;7.508;2022-08-27T08:22:07;21.70;99.90
38118;DHT22;23928;47.562;7.508;2022-08-27T08:24:34;21.80;99.90
38118;DHT22;23928;47.562;7.508;2022-08-27T08:27:00;21.70;99.90
38118;DHT22;23928;47.562;7.508;2022-08-27T08:29:26;22.20;99.90
38118;DHT22;23928;47.562;7.508;2022-08-27T08:31:51;21.90;99.90
38118;DHT22;23928;47.562;7.508;2022-08-27T08:34:18;22.10;99.90
38118;DHT22;23928;47.562;7.508;2022-08-27T08:36:44;22.10;99.90
38118;DHT22;23928;47.562;7.508;2022-08-27T08:39:10;22.10;99.90
38118;DHT22;23928;47.562;7.508;2022-08-27T08:42:02;21.50;99.90
38118;DHT22;23928;47.562;7.508;2022-08-27T08:44:33;21.40;99.90
38118;DHT22;23928;47.562;7.508;2022-08-27T08:47:09;21.60;99.90
38118;DHT22;23928;47.562;7.508;2022-08-27T08:49:45;22.10;99.90
38118;DHT22;23928;47.562;7.508;2022-08-27T08:55:30;21.90;99.90
38118;DHT22;23928;47.562;7.508;2022-08-27T08:58:06;21.90;99.90
38118;DHT22;23928;47.562;7.508;2022-08-27T09:00:33;21.70;99.90
38118;DHT22;23928;47.562;7.508;2022-08-27T09:02:59;22.10;99.90
38118;DHT22;23928;47.562;7.508;2022-08-27T09:05:25;21.70;99.90
38118;DHT22;23928;47.562;7.508;2022-08-27T09:08:06;21.90;99.90
38118;DHT22;23928;47.562;7.508;2022-08-27T09:13:23;21.50;99.90
38118;DHT22;23928;47.562;7.508;2022-08-27T09:15:56;21.70;99.90
38118;DHT22;23928;47.562;7.508;2022-08-27T09:18:23;21.90;99.90
38118;DHT22;23928;47.562;7.508;2022-08-27T09:20:50;22.40;99.90
38118;DHT22;23928;47.562;7.508;2022-08-27T09:23:30;22.50;99.90
38118;DHT22;23928;47.562;7.508;2022-08-27T09:25:58;22.10;99.90
38118;DHT22;23928;47.562;7.508;2022-08-27T09:28:25;21.90;99.90
38118;DHT22;23928;47.562;7.508;2022-08-27T09:31:17;22.00;99.90
38118;DHT22;23928;47.562;7.508;2022-08-27T09:33:43;22.10;99.90
38118;DHT22;23928;47.562;7.508;2022-08-27T09:36:13;22.30;99.90
38118;DHT22;23928;47.562;7.508;2022-08-27T09:38:50;22.50;99.90
38118;DHT22;23928;47.562;7.508;2022-08-27T09:41:22;22.40;99.90
38118;DHT22;23928;47.562;7.508;2022-08-27T09:44:06;22.40;99.90
38118;DHT22;23928;47.562;7.508;2022-08-27T09:46:32;22.00;99.90
38118;DHT22;23928;47.562;7.508;2022-08-27T09:49:15;22.30;99.90
38118;DHT22;23928;47.562;7.508;2022-08-27T09:51:43;22.20;99.90
38118;DHT22;23928;47.562;7.508;2022-08-27T09:54:10;22.40;99.90
38118;DHT22;23928;47.562;7.508;2022-08-27T09:56:39;22.30;99.90
38118;DHT22;23928;47.562;7.508;2022-08-27T10:01:35;22.30;99.90
38118;DHT22;23928;47.562;7.508;2022-08-27T10:04:15;22.30;99.90
38118;DHT22;23928;47.562;7.508;2022-08-27T10:06:47;22.30;99.90
38118;DHT22;23928;47.562;7.508;2022-08-27T10:14:44;22.20;99.90
38118;DHT22;23928;47.562;7.508;2022-08-27T10:20:04;22.40;99.90
38118;DHT22;23928;47.562;7.508;2022-08-27T10:25:53;22.60;99.90
38118;DHT22;23928;47.562;7.508;2022-08-27T10:36:35;23.60;99.90
38118;DHT22;23928;47.562;7.508;2022-08-27T10:39:35;23.20;99.90
38118;DHT22;23928;47.562;7.508;2022-08-27T10:42:25;23.50;99.90
38118;DHT22;23928;47.562;7.508;2022-08-27T10:45:35;23.50;99.90
38118;DHT22;23928;47.562;7.508;2022-08-27T10:48:39;23.90;99.90
38118;DHT22;23928;47.562;7.508;2022-08-27T10:51:24;23.70;99.90
38118;DHT22;23928;47.562;7.508;2022-08-27T10:54:20;24.50;99.90
38118;DHT22;23928;47.562;7.508;2022-08-27T10:56:55;24.10;99.90
38118;DHT22;23928;47.562;7.508;2022-08-27T10:59:28;24.60;99.90
38118;DHT22;23928;47.562;7.508;2022-08-27T11:04:36;25.00;99.90
38118;DHT22;23928;47.562;7.508;2022-08-27T11:07:07;24.70;99.90
38118;DHT22;23928;47.562;7.508;2022-08-27T11:09:49;25.10;99.90
38118;DHT22;23928;47.562;7.508;2022-08-27T11:12:38;25.10;99.90
38118;DHT22;23928;47.562;7.508;2022-08-27T11:18:02;25.20;99.90
38118;DHT22;23928;47.562;7.508;2022-08-27T11:20:56;25.40;99.90
38118;DHT22;23928;47.562;7.508;2022-08-27T11:23:36;25.90;99.90
38118;DHT22;23928;47.562;7.508;2022-08-27T11:26:05;26.40;99.90
38118;DHT22;23928;47.562;7.508;2022-08-27T11:28:38;26.20;99.90
38118;DHT22;23928;47.562;7.508;2022-08-27T11:31:28;26.10;99.90
38118;DHT22;23928;47.562;7.508;2022-08-27T11:34:18;26.20;99.90
38118;DHT22;23928;47.562;7.508;2022-08-27T11:39:59;26.70;99.90
38118;DHT22;23928;47.562;7.508;2022-08-27T11:42:44;26.80;99.90
38118;DHT22;23928;47.562;7.508;2022-08-27T11:45:19;27.20;99.90
38118;DHT22;23928;47.562;7.508;2022-08-27T11:48:12;27.30;99.90
38118;DHT22;23928;47.562;7.508;2022-08-27T11:50:39;27.60;99.90
38118;DHT22;23928;47.562;7.508;2022-08-27T11:53:06;27.30;99.90
38118;DHT22;23928;47.562;7.508;2022-08-27T11:55:37;26.70;99.90
38118;DHT22;23928;47.562;7.508;2022-08-27T12:00:40;25.30;99.90
38118;DHT22;23928;47.562;7.508;2022-08-27T12:03:09;25.20;99.90
38118;DHT22;23928;47.562;7.508;2022-08-27T12:05:48;25.40;99.90
38118;DHT22;23928;47.562;7.508;2022-08-27T12:08:30;25.10;99.90
38118;DHT22;23928;47.562;7.508;2022-08-27T12:11:26;25.20;99.90
38118;DHT22;23928;47.562;7.508;2022-08-27T12:17:06;25.60;99.90
38118;DHT22;23928;47.562;7.508;2022-08-27T12:25:26;27.20;99.90
38118;DHT22;23928;47.562;7.508;2022-08-27T12:28:02;27.20;99.90
38118;DHT22;23928;47.562;7.508;2022-08-27T12:30:30;26.90;99.90
38118;DHT22;23928;47.562;7.508;2022-08-27T12:32:58;27.50;99.90
38118;DHT22;23928;47.562;7.508;2022-08-27T12:35:36;27.90;99.90
38118;DHT22;23928;47.562;7.508;2022-08-27T12:40:50;27.40;99.90
38118;DHT22;23928;47.562;7.508;2022-08-27T12:43:22;28.40;99.90
38118;DHT22;23928;47.562;7.508;2022-08-27T12:46:16;28.60;99.90
38118;DHT22;23928;47.562;7.508;2022-08-27T12:48:53;29.00;99.90
38118;DHT22;23928;47.562;7.508;2022-08-27T12:51:30;28.80;99.90
38118;DHT22;23928;47.562;7.508;2022-08-27T13:05:19;25.70;99.90
38118;DHT22;23928;47.562;7.508;2022-08-27T13:07:47;25.90;99.90
38118;DHT22;23928;47.562;7.508;2022-08-27T13:12:44;25.60;99.90
38118;DHT22;23928;47.562;7.508;2022-08-27T13:15:12;25.70;99.90
38118;DHT22;23928;47.562;7.508;2022-08-27T13:17:39;25.50;99.90
38118;DHT22;23928;47.562;7.508;2022-08-27T13:20:15;25.50;99.90
38118;DHT22;23928;47.562;7.508;2022-08-27T13:22:42;26.00;99.90
38118;DHT22;23928;47.562;7.508;2022-08-27T13:25:27;26.30;99.90
38118;DHT22;23928;47.562;7.508;2022-08-27T13:28:14;26.10;99.90
38118;DHT22;23928;47.562;7.508;2022-08-27T13:30:45;26.30;99.90
38118;DHT22;23928;47.562;7.508;2022-08-27T13:33:33;26.40;99.90
38118;DHT22;23928;47.562;7.508;2022-08-27T13:35:59;26.00;99.90
38118;DHT22;23928;47.562;7.508;2022-08-27T13:38:30;26.20;99.90
38118;DHT22;23928;47.562;7.508;2022-08-27T13:41:04;25.60;99.90
38118;DHT22;23928;47.562;7.508;2022-08-27T13:43:35;25.50;99.90
38118;DHT22;23928;47.562;7.508;2022-08-27T13:46:06;25.30;99.90
38118;DHT22;23928;47.562;7.508;2022-08-27T13:48:33;25.00;99.90
38118;DHT22;23928;47.562;7.508;2022-08-27T13:51:00;25.10;99.90
38118;DHT22;23928;47.562;7.508;2022-08-27T13:53:30;25.40;99.90
38118;DHT22;23928;47.562;7.508;2022-08-27T13:56:27;25.20;99.90
38118;DHT22;23928;47.562;7.508;2022-08-27T13:58:53;25.00;99.90
38118;DHT22;23928;47.562;7.508;2022-08-27T14:01:28;25.00;99.90
38118;DHT22;23928;47.562;7.508;2022-08-27T14:04:05;25.10;99.90
38118;DHT22;23928;47.562;7.508;2022-08-27T14:06:38;24.90;99.90
38118;DHT22;23928;47.562;7.508;2022-08-27T14:09:27;24.80;99.90
38118;DHT22;23928;47.562;7.508;2022-08-27T14:12:05;24.60;99.90
38118;DHT22;23928;47.562;7.508;2022-08-27T14:14:40;24.50;99.90
38118;DHT22;23928;47.562;7.508;2022-08-27T14:17:21;24.50;99.90
38118;DHT22;23928;47.562;7.508;2022-08-27T14:19:47;24.20;99.90
38118;DHT22;23928;47.562;7.508;2022-08-27T14:22:14;24.10;99.90
38118;DHT22;23928;47.562;7.508;2022-08-27T14:24:39;23.80;99.90
38118;DHT22;23928;47.562;7.508;2022-08-27T14:27:09;23.90;99.90
38118;DHT22;23928;47.562;7.508;2022-08-27T14:29:36;23.60;99.90
38118;DHT22;23928;47.562;7.508;2022-08-27T14:32:02;23.40;99.90
38118;DHT22;23928;47.562;7.508;2022-08-27T14:34:28;22.90;99.90
38118;DHT22;23928;47.562;7.508;2022-08-27T14:36:54;23.00;99.90
38118;DHT22;23928;47.562;7.508;2022-08-27T14:39:19;22.40;99.90
38118;DHT22;23928;47.562;7.508;2022-08-27T14:41:45;22.20;99.90
38118;DHT22;23928;47.562;7.508;2022-08-27T14:44:11;22.10;99.90
38118;DHT22;23928;47.562;7.508;2022-08-27T14:46:37;22.20;99.90
38118;DHT22;23928;47.562;7.508;2022-08-27T14:49:09;22.00;99.90
38118;DHT22;23928;47.562;7.508;2022-08-27T14:51:36;22.00;99.90
38118;DHT22;23928;47.562;7.508;2022-08-27T14:54:02;21.90;99.90
38118;DHT22;23928;47.562;7.508;2022-08-27T14:56:28;22.10;99.90
38118;DHT22;23928;47.562;7.508;2022-08-27T14:58:54;22.10;99.90
38118;DHT22;23928;47.562;7.508;2022-08-27T15:01:22;21.90;99.90
38118;DHT22;23928;47.562;7.508;2022-08-27T15:03:49;21.80;99.90
38118;DHT22;23928;47.562;7.508;2022-08-27T15:06:17;21.80;99.90
38118;DHT22;23928;47.562;7.508;2022-08-27T15:08:43;21.60;99.90
38118;DHT22;23928;47.562;7.508;2022-08-27T15:11:23;21.40;99.90
38118;DHT22;23928;47.562;7.508;2022-08-27T15:13:50;21.30;99.90
38118;DHT22;23928;47.562;7.508;2022-08-27T15:16:46;21.40;99.90
38118;DHT22;23928;47.562;7.508;2022-08-27T15:19:12;21.30;99.90
38118;DHT22;23928;47.562;7.508;2022-08-27T15:21:40;21.30;99.90
38118;DHT22;23928;47.562;7.508;2022-08-27T15:26:38;21.40;99.90
38118;DHT22;23928;47.562;7.508;2022-08-27T15:29:03;21.60;99.90
38118;DHT22;23928;47.562;7.508;2022-08-27T15:31:29;21.20;99.90
38118;DHT22;23928;47.562;7.508;2022-08-27T15:33:54;21.10;99.90
38118;DHT22;23928;47.562;7.508;2022-08-27T15:36:20;21.10;99.90
38118;DHT22;23928;47.562;7.508;2022-08-27T15:38:46;21.00;99.90
38118;DHT22;23928;47.562;7.508;2022-08-27T15:41:11;21.20;99.90
38118;DHT22;23928;47.562;7.508;2022-08-27T15:43:37;21.10;99.90
38118;DHT22;23928;47.562;7.508;2022-08-27T15:46:04;21.10;99.90
38118;DHT22;23928;47.562;7.508;2022-08-27T15:48:30;21.40;99.90
38118;DHT22;23928;47.562;7.508;2022-08-27T15:50:57;21.10;99.90
38118;DHT22;23928;47.562;7.508;2022-08-27T15:53:23;21.10;99.90
38118;DHT22;23928;47.562;7.508;2022-08-27T15:55:50;21.20;99.90
38118;DHT22;23928;47.562;7.508;2022-08-27T15:58:16;21.30;99.90
38118;DHT22;23928;47.562;7.508;2022-08-27T16:00:42;21.10;99.90
38118;DHT22;23928;47.562;7.508;2022-08-27T16:03:10;20.90;99.90
38118;DHT22;23928;47.562;7.508;2022-08-27T16:05:39;21.20;99.90
38118;DHT22;23928;47.562;7.508;2022-08-27T16:08:05;21.20;99.90
38118;DHT22;23928;47.562;7.508;2022-08-27T16:10:31;21.10;99.90
38118;DHT22;23928;47.562;7.508;2022-08-27T16:12:57;21.30;99.90
38118;DHT22;23928;47.562;7.508;2022-08-27T16:15:22;21.20;99.90
38118;DHT22;23928;47.562;7.508;2022-08-27T16:17:58;21.30;99.90
38118;DHT22;23928;47.562;7.508;2022-08-27T16:20:25;21.30;99.90
38118;DHT22;23928;47.562;7.508;2022-08-27T16:22:52;21.60;99.90
38118;DHT22;23928;47.562;7.508;2022-08-27T16:25:18;21.60;99.90
38118;DHT22;23928;47.562;7.508;2022-08-27T16:27:48;21.60;99.90
38118;DHT22;23928;47.562;7.508;2022-08-27T16:30:15;21.50;99.90
38118;DHT22;23928;47.562;7.508;2022-08-27T16:32:46;21.50;99.90
38118;DHT22;23928;47.562;7.508;2022-08-27T16:35:12;21.60;99.90
38118;DHT22;23928;47.562;7.508;2022-08-27T16:37:40;21.40;99.90
38118;DHT22;23928;47.562;7.508;2022-08-27T16:40:06;21.70;99.90
38118;DHT22;23928;47.562;7.508;2022-08-27T16:42:32;22.20;99.90
38118;DHT22;23928;47.562;7.508;2022-08-27T16:44:58;21.80;99.90
38118;DHT22;23928;47.562;7.508;2022-08-27T16:47:24;21.70;99.90
38118;DHT22;23928;47.562;7.508;2022-08-27T16:49:50;21.90;99.90
38118;DHT22;23928;47.562;7.508;2022-08-27T16:52:34;22.00;99.90